createdAt,value
2017-10-15T00:02:16.031Z,12.97
2017-10-15T00:04:44.107Z,12.70
2017-10-15T00:07:12.179Z,11.57
2017-10-15T00:09:40.247Z,12.57
2017-10-15T00:12:08.324Z,11.97
2017-10-15T00:14:36.436Z,14.63
2017-10-15T00:17:04.464Z,17.90
2017-10-15T00:19:32.547Z,12.87
2017-10-15T00:22:00.613Z,12.80
2017-10-15T00:24:28.688Z,13.67
2017-10-15T00:26:56.746Z,13.77
2017-10-15T00:29:24.843Z,14.03
2017-10-15T00:31:52.914Z,14.00
2017-10-15T00:34:20.983Z,12.77
2017-10-15T00:36:49.064Z,12.47
2017-10-15T00:39:17.127Z,12.77
2017-10-15T00:41:45.214Z,12.03
2017-10-15T00:44:13.270Z,12.40
2017-10-15T00:46:41.365Z,21.07
2017-10-15T00:49:09.426Z,12.63
2017-10-15T00:51:38.282Z,13.93
2017-10-15T00:54:06.346Z,13.00
2017-10-15T00:56:34.448Z,13.13
2017-10-15T00:59:02.524Z,14.50
2017-10-15T01:01:30.595Z,15.20
2017-10-15T01:03:58.679Z,12.73
2017-10-15T01:06:26.771Z,12.03
2017-10-15T01:08:55.524Z,15.63
2017-10-15T01:11:23.645Z,16.80
2017-10-15T01:13:51.739Z,11.93
2017-10-15T01:16:19.800Z,11.07
2017-10-15T01:18:47.878Z,11.20
2017-10-15T01:21:16.711Z,18.43
2017-10-15T01:23:44.796Z,13.00
2017-10-15T01:26:12.855Z,11.87
2017-10-15T01:28:40.941Z,12.77
2017-10-15T01:31:09.036Z,11.23
2017-10-15T01:33:37.102Z,12.70
2017-10-15T01:36:05.183Z,11.63
2017-10-15T01:38:33.233Z,12.17
2017-10-15T01:41:01.315Z,11.57
2017-10-15T01:43:29.387Z,11.57
2017-10-15T01:45:57.459Z,11.23
2017-10-15T01:48:25.515Z,11.03
2017-10-15T01:50:53.599Z,9.83
2017-10-15T01:53:21.660Z,10.23
2017-10-15T01:55:49.731Z,12.00
2017-10-15T01:58:17.818Z,12.43
2017-10-15T02:00:45.894Z,11.63
2017-10-15T02:03:13.938Z,10.77
2017-10-15T02:05:42.025Z,10.53
2017-10-15T02:08:10.103Z,14.77
2017-10-15T02:10:38.175Z,14.70
2017-10-15T02:13:06.245Z,10.97
2017-10-15T02:15:34.316Z,12.00
2017-10-15T02:18:02.393Z,12.57
2017-10-15T02:20:30.460Z,9.83
2017-10-15T02:22:58.526Z,25.33
2017-10-15T02:25:26.599Z,9.80
2017-10-15T02:27:54.659Z,8.63
2017-10-15T02:30:22.730Z,9.97
2017-10-15T02:32:50.808Z,12.37
2017-10-15T02:35:18.899Z,9.80
2017-10-15T02:37:47.729Z,8.83
2017-10-15T02:40:15.794Z,9.90
2017-10-15T02:42:43.864Z,12.37
2017-10-15T02:45:11.929Z,10.23
2017-10-15T02:47:40.773Z,9.50
2017-10-15T02:50:08.841Z,12.80
2017-10-15T02:52:36.914Z,12.63
2017-10-15T02:55:04.971Z,10.43
2017-10-15T02:57:33.051Z,8.77
2017-10-15T03:00:01.107Z,12.50
2017-10-15T03:02:29.204Z,11.23
2017-10-15T03:04:57.248Z,9.07
2017-10-15T03:07:25.335Z,8.57
2017-10-15T03:09:53.399Z,11.20
2017-10-15T03:12:21.458Z,8.43
2017-10-15T03:14:49.616Z,9.20
2017-10-15T03:17:18.430Z,9.37
2017-10-15T03:19:46.527Z,9.60
2017-10-15T03:22:14.579Z,8.53
2017-10-15T03:24:43.471Z,9.13
2017-10-15T03:27:11.546Z,8.80
2017-10-15T03:29:39.634Z,10.17
2017-10-15T03:32:07.678Z,8.63
2017-10-15T03:34:35.783Z,8.13
2017-10-15T03:37:03.809Z,10.13
2017-10-15T03:39:31.890Z,9.10
2017-10-15T03:41:59.991Z,9.63
2017-10-15T03:44:28.071Z,8.20
2017-10-15T03:46:56.139Z,7.73
2017-10-15T03:49:24.199Z,8.37
2017-10-15T03:51:52.258Z,11.63
2017-10-15T03:54:20.323Z,7.23
2017-10-15T03:56:48.392Z,7.97
2017-10-15T03:59:16.455Z,8.63
2017-10-15T04:01:44.530Z,10.60
2017-10-15T04:04:13.958Z,8.50
2017-10-15T04:06:42.026Z,9.37
2017-10-15T04:09:10.085Z,8.00
2017-10-15T04:11:38.173Z,7.20
2017-10-15T04:14:06.230Z,7.40
2017-10-15T04:16:34.291Z,8.40
2017-10-15T04:19:02.376Z,8.33
2017-10-15T04:21:30.430Z,8.90
2017-10-15T04:23:58.514Z,9.63
2017-10-15T04:26:26.587Z,7.57
2017-10-15T04:28:54.639Z,9.00
2017-10-15T04:31:22.712Z,8.57
2017-10-15T04:33:50.780Z,8.53
2017-10-15T04:36:19.326Z,9.00
2017-10-15T04:38:48.171Z,7.53
2017-10-15T04:41:16.223Z,8.37
2017-10-15T04:43:44.303Z,8.83
2017-10-15T04:46:12.351Z,10.07
2017-10-15T04:48:40.517Z,8.97
2017-10-15T04:51:08.580Z,11.00
2017-10-15T04:53:37.475Z,8.77
2017-10-15T04:56:05.571Z,11.20
2017-10-15T04:58:33.674Z,8.43
2017-10-15T05:01:01.734Z,8.40
2017-10-15T05:03:29.806Z,8.37
2017-10-15T05:05:57.886Z,9.43
2017-10-15T05:08:25.939Z,13.30
2017-10-15T05:10:54.034Z,10.20
2017-10-15T05:13:22.083Z,8.40
2017-10-15T05:15:50.152Z,10.03
2017-10-15T05:18:18.199Z,8.20
2017-10-15T05:20:47.043Z,8.70
2017-10-15T05:23:15.094Z,8.13
2017-10-15T05:25:43.179Z,9.00
2017-10-15T05:28:11.247Z,9.40
2017-10-15T05:30:39.306Z,9.13
2017-10-15T05:33:07.391Z,7.93
2017-10-15T05:35:35.451Z,9.00
2017-10-15T05:38:03.734Z,10.50
2017-10-15T05:40:43.821Z,9.60
2017-10-15T05:43:15.085Z,12.20
2017-10-15T05:45:57.455Z,8.70
2017-10-15T05:48:31.855Z,9.73
2017-10-15T05:51:14.974Z,9.10
2017-10-15T05:53:47.610Z,12.30
2017-10-15T05:56:25.193Z,9.50
2017-10-15T05:58:56.328Z,9.10
2017-10-15T06:01:27.913Z,11.90
2017-10-15T06:03:59.684Z,11.30
2017-10-15T06:06:33.602Z,10.40
2017-10-15T06:09:04.783Z,11.30
2017-10-15T06:11:36.501Z,11.90
2017-10-15T06:14:22.446Z,11.13
2017-10-15T06:16:53.572Z,10.13
2017-10-15T06:19:24.585Z,9.80
2017-10-15T06:21:56.890Z,11.90
2017-10-15T06:24:25.493Z,10.70
2017-10-15T06:26:55.294Z,15.10
2017-10-15T06:29:31.462Z,10.33
2017-10-15T06:32:00.546Z,14.17
2017-10-15T06:34:28.788Z,11.03
2017-10-15T06:37:10.133Z,12.17
2017-10-15T06:39:50.000Z,10.60
2017-10-15T06:42:26.668Z,11.27
2017-10-15T06:47:46.491Z,13.30
2017-10-15T06:50:23.642Z,10.17
2017-10-15T06:55:48.775Z,10.67
2017-10-15T06:58:41.198Z,11.73
2017-10-15T07:03:44.784Z,10.40
2017-10-15T07:06:14.064Z,10.00
2017-10-15T07:08:42.301Z,14.00
2017-10-15T07:11:16.071Z,13.80
2017-10-15T07:13:44.320Z,11.60
2017-10-15T07:16:13.204Z,13.03
2017-10-15T07:18:41.471Z,11.97
2017-10-15T07:21:09.958Z,12.37
2017-10-15T07:23:38.675Z,12.83
2017-10-15T07:26:06.885Z,12.40
2017-10-15T07:28:36.749Z,12.10
2017-10-15T07:31:05.630Z,13.03
2017-10-15T07:33:33.849Z,12.67
2017-10-15T07:36:03.777Z,12.83
2017-10-15T07:38:32.467Z,12.13
2017-10-15T07:41:00.823Z,12.73
2017-10-15T07:43:29.053Z,13.00
2017-10-15T07:45:58.392Z,9.80
2017-10-15T07:48:26.588Z,13.03
2017-10-15T07:50:55.590Z,11.77
2017-10-15T07:53:25.575Z,14.33
2017-10-15T07:55:55.345Z,11.67
2017-10-15T07:58:23.576Z,9.70
2017-10-15T08:00:51.966Z,9.83
2017-10-15T08:03:20.346Z,8.80
2017-10-15T08:05:49.939Z,8.03
2017-10-15T08:08:18.949Z,9.53
2017-10-15T08:10:47.167Z,7.73
2017-10-15T08:13:15.403Z,8.10
2017-10-15T09:06:31.039Z,5.43
2017-10-15T09:09:07.603Z,5.50
2017-10-15T09:11:50.519Z,4.27
2017-10-15T09:14:20.754Z,4.93
2017-10-15T09:17:01.854Z,4.40
2017-10-15T09:19:46.522Z,4.80
2017-10-15T09:22:26.593Z,4.10
2017-10-15T09:25:03.198Z,4.90
2017-10-15T09:27:41.726Z,3.87
2017-10-15T09:30:32.076Z,3.80
2017-10-15T09:33:06.881Z,4.50
2017-10-15T09:35:46.541Z,35.63
2017-10-15T09:38:24.689Z,5.90
2017-10-15T09:40:58.987Z,4.10
2017-10-15T09:45:55.806Z,4.67
2017-10-15T09:48:32.443Z,4.13
2017-10-15T09:51:07.623Z,3.97
2017-10-15T09:53:42.292Z,8.33
2017-10-15T09:56:18.675Z,3.93
2017-10-15T09:58:52.646Z,3.33
2017-10-15T10:01:21.780Z,5.27
2017-10-15T10:03:50.017Z,3.40
2017-10-15T10:06:19.649Z,3.43
2017-10-15T10:08:47.917Z,6.00
2017-10-15T10:11:16.226Z,3.83
2017-10-15T10:13:44.468Z,3.83
2017-10-15T10:16:12.770Z,3.60
2017-10-15T10:18:41.671Z,3.83
2017-10-15T10:21:10.042Z,3.40
2017-10-15T10:23:40.716Z,5.87
2017-10-15T10:26:09.776Z,5.43
2017-10-15T10:28:39.560Z,3.93
2017-10-15T10:31:08.310Z,4.30
2017-10-15T10:33:37.783Z,6.13
2017-10-15T10:36:09.096Z,7.17
2017-10-15T10:38:39.332Z,3.77
2017-10-15T10:41:10.854Z,6.40
2017-10-15T10:43:43.571Z,4.47
2017-10-15T10:46:12.353Z,8.20
2017-10-15T10:48:40.571Z,4.30
2017-10-15T10:51:08.857Z,3.83
2017-10-15T10:53:37.344Z,7.80
2017-10-15T10:56:05.592Z,5.20
2017-10-15T10:58:34.326Z,4.17
2017-10-15T11:01:03.531Z,4.87
2017-10-15T11:03:31.812Z,5.07
2017-10-15T11:06:00.865Z,5.27
2017-10-15T11:08:29.798Z,6.30
2017-10-15T11:10:58.124Z,4.93
2017-10-15T11:13:27.967Z,4.40
2017-10-15T11:15:57.453Z,5.13
2017-10-15T11:18:28.089Z,5.13
2017-10-15T11:20:56.443Z,13.13
2017-10-15T11:23:25.631Z,4.87
2017-10-15T11:25:55.913Z,11.23
2017-10-15T11:28:25.383Z,4.37
2017-10-15T11:30:53.644Z,4.53
2017-10-15T11:33:22.130Z,4.40
2017-10-15T11:35:50.615Z,4.53
2017-10-15T11:38:19.617Z,4.57
2017-10-15T11:40:49.400Z,5.03
2017-10-15T11:43:17.684Z,4.00
2017-10-15T11:45:46.723Z,4.53
2017-10-15T11:48:14.828Z,4.50
2017-10-15T11:50:42.907Z,4.67
2017-10-15T11:53:10.972Z,4.53
2017-10-15T11:55:39.064Z,7.10
2017-10-15T11:58:07.777Z,5.00
2017-10-15T12:00:36.094Z,5.40
2017-10-15T12:03:04.926Z,4.40
2017-10-15T12:05:32.991Z,5.30
2017-10-15T12:08:01.065Z,8.80
2017-10-15T12:10:29.118Z,6.30
2017-10-15T12:12:57.196Z,8.87
2017-10-15T12:15:25.243Z,5.17
2017-10-15T12:17:53.348Z,5.70
2017-10-15T12:20:21.400Z,5.40
2017-10-15T12:22:49.483Z,5.17
2017-10-15T12:25:17.572Z,9.23
2017-10-15T12:27:45.627Z,5.23
2017-10-15T12:30:14.488Z,5.30
2017-10-15T12:32:42.589Z,7.37
2017-10-15T12:35:10.659Z,5.87
2017-10-15T12:37:39.519Z,6.60
2017-10-15T12:40:07.604Z,6.80
2017-10-15T12:42:35.683Z,6.10
2017-10-15T12:45:03.763Z,5.47
2017-10-15T12:47:32.315Z,6.67
2017-10-15T12:50:00.404Z,6.23
2017-10-15T12:52:28.484Z,5.40
2017-10-15T12:54:56.536Z,7.33
2017-10-15T12:57:24.627Z,6.30
2017-10-15T12:59:52.692Z,7.77
2017-10-15T13:02:20.783Z,6.20
2017-10-15T13:04:49.615Z,8.43
2017-10-15T13:07:17.675Z,7.43
2017-10-15T13:09:45.809Z,6.17
2017-10-15T13:12:13.851Z,9.20
2017-10-15T13:14:41.953Z,5.77
2017-10-15T13:17:10.024Z,7.37
2017-10-15T13:19:38.105Z,7.73
2017-10-15T13:22:06.140Z,6.50
2017-10-15T13:24:34.222Z,7.47
2017-10-15T13:27:02.303Z,9.23
2017-10-15T13:29:30.390Z,6.20
2017-10-15T13:31:58.487Z,5.77
2017-10-15T13:34:26.560Z,11.00
2017-10-15T13:36:54.626Z,6.83
2017-10-15T13:39:22.708Z,7.73
2017-10-15T13:41:50.774Z,8.17
2017-10-15T13:44:18.834Z,6.40
2017-10-15T13:46:46.924Z,6.37
2017-10-15T13:49:14.991Z,7.87
2017-10-15T13:51:43.071Z,8.00
2017-10-15T13:54:11.900Z,6.13
2017-10-15T13:56:39.966Z,6.97
2017-10-15T13:59:08.028Z,6.73
2017-10-15T14:01:36.072Z,10.07
2017-10-15T14:04:04.924Z,6.23
2017-10-15T14:06:32.984Z,9.30
2017-10-15T14:09:01.075Z,8.90
2017-10-15T14:11:29.144Z,5.90
2017-10-15T14:13:57.220Z,8.00
2017-10-15T14:16:25.284Z,5.70
2017-10-15T14:18:53.355Z,6.93
2017-10-15T14:21:21.445Z,8.30
2017-10-15T14:23:49.499Z,7.73
2017-10-15T14:26:17.567Z,10.97
2017-10-15T14:28:45.668Z,6.93
2017-10-15T14:31:14.534Z,10.97
2017-10-15T14:33:42.603Z,7.57
2017-10-15T14:36:10.665Z,5.83
2017-10-15T14:38:38.741Z,6.30
2017-10-15T14:41:06.804Z,9.80
2017-10-15T14:43:34.881Z,9.00
2017-10-15T14:46:02.975Z,7.23
2017-10-15T14:48:31.035Z,6.40
2017-10-15T14:50:59.119Z,7.07
2017-10-15T14:53:27.171Z,12.50
2017-10-15T14:55:55.229Z,6.10
2017-10-15T14:58:23.375Z,6.47
2017-10-15T15:01:04.178Z,8.07
2017-10-15T15:03:33.084Z,9.27
2017-10-15T15:06:02.073Z,8.23
2017-10-15T15:08:30.128Z,6.53
2017-10-15T15:10:58.214Z,6.30
2017-10-15T15:13:26.338Z,6.70
2017-10-15T15:15:54.400Z,9.63
2017-10-15T15:18:22.464Z,6.57
2017-10-15T15:20:50.540Z,6.97
2017-10-15T15:23:18.634Z,7.07
2017-10-15T15:25:46.678Z,6.30
2017-10-15T15:28:14.782Z,6.63
2017-10-15T15:30:43.612Z,7.73
2017-10-15T15:33:11.695Z,6.50
2017-10-15T15:35:39.735Z,7.93
2017-10-15T15:38:07.851Z,8.57
2017-10-15T15:40:36.090Z,10.47
2017-10-15T15:43:04.920Z,15.67
2017-10-15T15:45:33.001Z,6.50
2017-10-15T15:48:01.077Z,9.03
2017-10-15T15:50:29.154Z,8.20
2017-10-15T15:52:57.227Z,6.30
2017-10-15T15:55:26.785Z,7.37
2017-10-15T15:57:54.893Z,7.87
2017-10-15T16:00:22.989Z,7.57
2017-10-15T16:02:51.934Z,15.30
2017-10-15T16:05:20.001Z,9.13
2017-10-15T16:07:48.231Z,12.40
2017-10-15T16:10:16.322Z,8.90
2017-10-15T16:12:44.495Z,8.00
2017-10-15T16:15:12.565Z,7.30
2017-10-15T16:17:40.653Z,7.50
2017-10-15T16:20:08.705Z,7.40
2017-10-15T16:22:36.792Z,7.20
2017-10-15T16:25:04.876Z,8.17
2017-10-15T16:27:32.943Z,9.07
2017-10-15T16:30:01.012Z,8.07
2017-10-15T16:32:29.078Z,8.37
2017-10-15T16:34:57.171Z,8.70
2017-10-15T16:37:25.252Z,8.57
2017-10-15T16:39:54.520Z,8.60
2017-10-15T16:59:05.754Z,32.63
2017-10-15T17:01:38.669Z,10.33
2017-10-15T17:04:15.303Z,9.30
2017-10-15T17:22:58.843Z,12.77
2017-10-15T17:25:27.934Z,10.77
2017-10-15T17:27:57.566Z,13.20
2017-10-15T17:30:25.999Z,15.53
2017-10-15T17:32:54.748Z,11.20
2017-10-15T17:35:23.945Z,12.30
2017-10-15T17:37:52.105Z,10.50
2017-10-15T17:40:20.530Z,17.13
2017-10-15T17:42:48.744Z,18.63
2017-10-15T17:45:17.096Z,15.27
2017-10-15T17:47:45.567Z,14.77
2017-10-15T17:50:13.810Z,17.80
2017-10-15T17:52:48.180Z,20.13
2017-10-15T17:55:38.246Z,18.07
2017-10-15T17:58:18.846Z,22.77
2017-10-15T18:01:05.430Z,18.00
2017-10-15T18:03:50.391Z,17.27
2017-10-15T18:06:19.171Z,20.17
2017-10-15T18:08:47.256Z,16.73
2017-10-15T18:11:15.883Z,15.40
2017-10-15T18:13:43.979Z,14.33
2017-10-15T18:16:12.048Z,12.93
2017-10-15T18:18:40.153Z,17.90
2017-10-15T18:21:08.220Z,13.37
2017-10-15T18:23:36.314Z,17.17
2017-10-15T18:26:06.567Z,13.53
2017-10-15T18:28:35.402Z,13.77
2017-10-15T18:31:03.504Z,13.50
2017-10-15T18:33:32.350Z,17.23
2017-10-15T18:36:00.460Z,11.20
2017-10-15T18:38:29.316Z,12.27
2017-10-15T18:40:57.397Z,12.67
2017-10-15T18:43:25.493Z,15.33
2017-10-15T18:45:53.750Z,14.83
2017-10-15T18:48:21.831Z,15.17
2017-10-15T18:50:49.934Z,22.83
2017-10-15T18:53:18.024Z,11.63
2017-10-15T18:55:46.122Z,14.33
2017-10-15T18:58:14.200Z,13.13
2017-10-15T19:00:42.367Z,16.43
2017-10-15T19:03:10.447Z,12.83
2017-10-15T19:05:38.516Z,11.43
2017-10-15T19:08:06.688Z,10.50
2017-10-15T19:10:34.777Z,11.20
2017-10-15T19:13:03.068Z,11.20
2017-10-15T19:15:31.163Z,11.27
2017-10-15T19:17:59.273Z,10.60
2017-10-15T19:20:27.346Z,11.40
2017-10-15T19:22:55.457Z,10.53
2017-10-15T19:25:24.283Z,10.93
2017-10-15T19:27:52.419Z,13.00
2017-10-15T19:30:20.460Z,11.07
2017-10-15T19:32:48.576Z,10.50
2017-10-15T19:35:17.041Z,11.20
2017-10-15T19:37:45.166Z,12.70
2017-10-15T19:40:13.259Z,17.53
2017-10-15T19:42:41.339Z,12.37
2017-10-15T19:45:09.428Z,18.10
2017-10-15T19:47:38.251Z,11.27
2017-10-15T19:50:06.400Z,11.17
2017-10-15T19:52:35.207Z,12.67
2017-10-15T19:55:03.919Z,12.47
2017-10-15T19:57:31.996Z,11.43
2017-10-15T20:00:00.205Z,11.73
2017-10-15T20:02:29.057Z,15.23
2017-10-15T20:04:57.329Z,11.63
2017-10-15T20:07:25.442Z,11.43
2017-10-15T20:09:54.287Z,11.30
2017-10-15T20:12:22.376Z,10.97
2017-10-15T20:14:50.892Z,12.30
2017-10-15T20:17:20.405Z,13.80
2017-10-15T20:19:48.557Z,12.50
2017-10-15T20:22:17.402Z,13.77
2017-10-15T20:24:45.478Z,12.73
2017-10-15T20:27:13.570Z,15.03
2017-10-15T20:29:42.441Z,14.60
2017-10-15T20:32:10.527Z,12.93
2017-10-15T20:34:38.616Z,13.70
2017-10-15T20:37:07.482Z,12.10
2017-10-15T20:39:35.543Z,11.47
2017-10-15T20:42:03.628Z,12.20
2017-10-15T20:44:31.732Z,11.57
2017-10-15T20:47:00.553Z,11.87
2017-10-15T20:49:28.672Z,12.00
2017-10-15T20:51:57.508Z,10.97
2017-10-15T20:54:25.608Z,13.90
2017-10-15T20:56:53.688Z,12.57
2017-10-15T20:59:22.557Z,12.90
2017-10-15T21:01:50.613Z,11.10
2017-10-15T21:04:18.715Z,12.30
2017-10-15T21:06:46.795Z,13.07
2017-10-15T21:09:15.662Z,14.57
2017-10-15T21:11:43.755Z,11.47
2017-10-15T21:14:11.821Z,13.30
2017-10-15T21:16:39.973Z,12.77
2017-10-15T21:19:08.004Z,13.43
2017-10-15T21:21:36.088Z,13.20
2017-10-15T21:24:04.143Z,12.53
2017-10-15T21:26:32.236Z,22.93
2017-10-15T21:29:01.079Z,13.30
2017-10-15T21:31:29.765Z,18.50
2017-10-15T21:33:57.890Z,14.10
2017-10-15T21:36:25.963Z,19.70
2017-10-15T21:38:54.797Z,12.27
2017-10-15T21:41:22.886Z,12.47
2017-10-15T21:43:50.955Z,14.53
2017-10-15T21:46:19.040Z,13.10
2017-10-15T21:48:47.129Z,11.80
2017-10-15T21:51:15.952Z,13.20
2017-10-15T21:53:44.079Z,13.17
2017-10-15T21:56:12.130Z,12.17
2017-10-15T21:58:40.204Z,12.57
2017-10-15T22:01:08.269Z,13.23
2017-10-15T22:03:36.344Z,12.93
2017-10-15T22:06:04.471Z,15.00
2017-10-15T22:08:54.218Z,13.27
2017-10-15T22:11:22.684Z,14.30
2017-10-15T22:13:50.831Z,14.70
2017-10-15T22:16:21.818Z,14.10
2017-10-15T22:18:55.716Z,13.60
2017-10-15T22:34:49.066Z,14.80
2017-10-15T22:37:17.978Z,13.73
2017-10-15T22:39:46.125Z,13.97
2017-10-15T22:42:15.037Z,16.10
2017-10-15T22:44:43.189Z,16.37
2017-10-15T22:47:12.084Z,14.47
2017-10-15T22:49:52.533Z,15.17
2017-10-15T22:52:20.605Z,20.67
2017-10-15T22:54:49.411Z,15.27
2017-10-15T22:57:17.503Z,15.57
2017-10-15T22:59:45.587Z,16.13
2017-10-15T23:02:13.663Z,21.23
2017-10-15T23:04:41.727Z,14.57
2017-10-15T23:07:09.820Z,18.60
2017-10-15T23:09:37.878Z,14.33
2017-10-15T23:12:05.977Z,14.43
2017-10-15T23:14:34.032Z,16.80
2017-10-15T23:17:02.753Z,15.03
2017-10-15T23:19:30.827Z,15.67
2017-10-15T23:21:59.675Z,15.93
2017-10-15T23:24:27.739Z,18.60
2017-10-15T23:26:55.824Z,18.50
2017-10-15T23:29:23.890Z,17.23
2017-10-15T23:31:51.967Z,14.53
2017-10-15T23:34:20.813Z,16.03
2017-10-15T23:36:48.895Z,16.70
2017-10-15T23:39:16.972Z,16.20
2017-10-15T23:41:45.098Z,18.57
2017-10-15T23:44:13.947Z,15.13
2017-10-15T23:46:42.011Z,16.87
2017-10-15T23:49:10.090Z,16.80
2017-10-15T23:51:38.150Z,18.60
2017-10-15T23:54:06.224Z,14.43
2017-10-15T23:56:34.317Z,15.63
2017-10-15T23:59:02.392Z,18.90
